Time;durP1;ratioP1;P1;durP2;ratioP2;P2;SDS_P1;SDS_P2;PMS_P1;PMS_P2;Temp;Humidity;BMP_temperature;BMP_pressure;BME280_temperature;BME280_humidity;BME280_pressure;Samples;Min_cycle;Max_cycle;Signal;HPM_P1;HPM_P2
2022/08/17 00:00:59;;;;;;;18.42;7.97;;;;;;;15.12;99.79;97806.22;5056534;28;19904;-65
2022/08/17 00:03:28;;;;;;;15.65;8.15;;;;;;;15.24;99.76;97802.09;5053999;28;20022;-65
2022/08/17 00:05:57;;;;;;;13.82;7.53;;;;;;;15.24;99.23;97812.69;5054807;28;20029;-65
2022/08/17 00:08:28;;;;;;;12.43;8.23;;;;;;;15.23;98.76;97806.53;5057144;28;20220;-65
2022/08/17 00:10:54;;;;;;;12.65;7.53;;;;;;;15.07;98.29;97804.75;5056692;28;20020;-65
2022/08/17 00:13:30;;;;;;;13.70;7.72;;;;;;;15.16;99.21;97805.13;5049816;28;20028;-65
2022/08/17 00:16:02;;;;;;;18.70;8.00;;;;;;;15.21;99.44;97807.53;5056899;28;20032;-65
2022/08/17 00:18:29;;;;;;;;;;;;;;;15.11;98.96;97801.00;5055706;28;20025;-65
2022/08/17 00:20:56;;;;;;;12.18;7.97;;;;;;;15.10;99.56;97799.28;5056835;28;20130;-65
2022/08/17 00:23:22;;;;;;;14.32;8.38;;;;;;;15.13;99.53;97799.13;5051110;28;20028;-65
2022/08/17 00:25:48;;;;;;;10.60;7.68;;;;;;;15.09;99.78;97802.84;5054631;28;20052;-65
2022/08/17 00:28:15;;;;;;;11.43;7.72;;;;;;;15.09;99.58;97802.84;5056605;28;20021;-65
2022/08/17 00:30:42;;;;;;;18.15;8.23;;;;;;;14.91;99.95;97801.97;5056600;28;20329;-65
2022/08/17 00:33:16;;;;;;;22.60;8.63;;;;;;;14.83;100.00;97790.06;5054137;28;20018;-65
2022/08/17 00:35:43;;;;;;;15.45;8.20;;;;;;;14.83;100.00;97785.63;5053671;28;20025;-65
2022/08/17 00:38:10;;;;;;;21.05;9.60;;;;;;;14.96;100.00;97785.84;5053392;28;20329;-65
2022/08/17 00:40:57;;;;;;;13.90;8.00;;;;;;;15.06;100.00;97793.28;5053451;28;20032;-65
2022/08/17 00:43:28;;;;;;;17.77;9.20;;;;;;;15.08;99.58;97785.25;5057931;28;20037;-65
2022/08/17 00:45:54;;;;;;;13.38;8.32;;;;;;;15.01;99.76;97784.72;5055763;28;20078;-65
2022/08/17 00:48:19;;;;;;;18.55;7.28;;;;;;;14.96;99.54;97783.22;5053167;28;20032;-65
2022/08/17 00:51:20;;;;;;;12.90;7.72;;;;;;;15.03;99.67;97792.59;5053209;28;20025;-65
2022/08/17 00:53:56;;;;;;;10.45;8.00;;;;;;;15.06;99.66;97795.06;5050940;28;20279;-65
2022/08/17 00:56:29;;;;;;;15.30;8.38;;;;;;;15.05;99.84;97794.22;5054293;28;20051;-65
2022/08/17 00:58:54;;;;;;;16.08;8.30;;;;;;;15.03;99.85;97796.06;5053045;28;20026;-65
2022/08/17 01:01:21;;;;;;;16.55;8.00;;;;;;;15.06;99.96;97798.56;5054139;28;20347;-65
2022/08/17 01:03:47;;;;;;;15.48;8.18;;;;;;;14.95;100.00;97789.44;5054727;28;20036;-65
2022/08/17 01:06:13;;;;;;;11.68;7.80;;;;;;;15.02;100.00;97793.50;5055401;28;20063;-65
2022/08/17 01:08:39;;;;;;;14.15;8.23;;;;;;;15.06;100.00;97795.06;5052841;28;20025;-65
2022/08/17 01:11:05;;;;;;;12.88;7.90;;;;;;;15.15;100.00;97791.94;5053081;28;20309;-65
2022/08/17 01:13:36;;;;;;;15.50;8.02;;;;;;;15.13;100.00;97797.31;5060813;28;20111;-65
2022/08/17 01:16:06;;;;;;;10.40;7.50;;;;;;;15.15;99.72;97797.25;5052638;28;20063;-65
2022/08/17 01:18:33;;;;;;;10.68;7.05;;;;;;;14.97;99.59;97792.91;5052888;28;20032;-65
2022/08/17 01:21:05;;;;;;;11.43;7.75;;;;;;;14.96;100.00;97791.16;5053587;28;20060;-65
2022/08/17 01:23:31;;;;;;;11.52;7.90;;;;;;;14.97;100.00;97792.91;5052790;28;20017;-65
2022/08/17 01:26:00;;;;;;;15.40;8.55;;;;;;;15.06;100.00;97793.28;5056483;28;20067;-65
2022/08/17 01:28:30;;;;;;;24.65;8.68;;;;;;;15.04;99.72;97783.69;5055314;28;20020;-65
2022/08/17 01:30:56;;;;;;;15.35;8.23;;;;;;;14.93;100.00;97786.00;5053991;28;20147;-65
2022/08/17 01:33:22;;;;;;;10.48;7.72;;;;;;;14.90;100.00;97786.16;5053923;28;20020;-65
2022/08/17 01:35:47;;;;;;;15.07;7.60;;;;;;;14.97;100.00;97792.91;5055600;28;20196;-65
2022/08/17 01:38:12;;;;;;;11.90;7.45;;;;;;;14.92;100.00;97784.31;5054002;28;20025;-65
2022/08/17 01:40:45;;;;;;;11.82;7.70;;;;;;;14.84;100.00;97791.78;5052455;28;20333;-65
2022/08/17 01:43:14;;;;;;;17.13;8.45;;;;;;;14.85;100.00;97793.50;5052222;28;20122;-65
2022/08/17 01:45:44;;;;;;;11.60;7.72;;;;;;;14.83;100.00;97790.06;5052410;28;20053;-65
2022/08/17 01:48:10;;;;;;;17.52;8.02;;;;;;;14.82;100.00;97789.22;5052064;28;20052;-65
2022/08/17 01:50:39;;;;;;;11.52;9.35;;;;;;;14.94;100.00;97787.75;5055862;28;20020;-65
2022/08/17 01:53:10;;;;;;;21.30;8.18;;;;;;;14.89;100.00;97785.31;5054522;28;20048;-65
2022/08/17 01:55:41;;;;;;;16.23;7.65;;;;;;;14.94;100.00;97790.41;5052168;28;20363;-65
2022/08/17 01:58:08;;;;;;;12.73;7.38;;;;;;;15.02;100.00;97797.03;5052233;28;20025;-65
2022/08/17 02:00:36;;;;;;;14.45;7.68;;;;;;;15.05;100.00;97798.66;5053897;28;20033;-65
2022/08/17 02:03:01;;;;;;;13.77;7.72;;;;;;;15.07;100.00;97799.44;5055102;28;20048;-65
2022/08/17 02:05:27;;;;;;;13.65;7.80;;;;;;;15.08;100.00;97802.03;5054726;28;20033;-65
2022/08/17 02:07:52;;;;;;;15.98;8.35;;;;;;;15.07;100.00;97816.19;5053775;28;20031;-65
2022/08/17 02:10:18;;;;;;;15.75;7.95;;;;;;;15.11;100.00;97870.78;5050337;28;20025;-65
2022/08/17 02:12:43;;;;;;;15.85;8.57;;;;;;;15.38;100.00;97876.53;5052685;28;20029;-65
2022/08/17 02:15:11;;;;;;;17.80;10.95;;;;;;;15.70;100.00;97881.06;5055016;28;20332;-65
2022/08/17 02:17:39;;;;;;;15.45;10.75;;;;;;;16.01;100.00;97891.78;5055308;28;20088;-65
2022/08/17 02:20:06;;;;;;;16.23;10.23;;;;;;;16.36;100.00;97888.09;5052098;28;20198;-65
2022/08/17 02:22:32;;;;;;;16.13;11.10;;;;;;;16.65;100.00;97874.09;5051762;28;20088;-65
2022/08/17 02:24:59;;;;;;;15.20;9.85;;;;;;;16.81;100.00;97869.66;5053001;28;20036;-65
2022/08/17 02:27:25;;;;;;;22.23;10.45;;;;;;;16.99;99.61;97887.22;5055055;28;20049;-65
2022/08/17 02:29:50;;;;;;;12.98;9.25;;;;;;;17.22;96.70;97892.09;5053854;28;20090;-65
2022/08/17 02:32:22;;;;;;;17.65;9.70;;;;;;;17.20;95.45;97894.00;5054314;28;20032;-65
2022/08/17 02:34:47;;;;;;;14.23;9.13;;;;;;;17.22;94.64;97881.44;5049325;28;20017;-65
2022/08/17 02:37:16;;;;;;;11.32;7.75;;;;;;;17.27;94.26;97889.16;5058367;28;20347;-65
2022/08/17 02:39:46;;;;;;;13.88;8.57;;;;;;;17.33;94.35;97882.66;5054785;28;20091;-65
2022/08/17 02:42:12;;;;;;;9.63;8.10;;;;;;;17.35;94.09;97886.06;5054828;28;20352;-65
2022/08/17 02:44:39;;;;;;;11.00;7.75;;;;;;;17.40;94.16;97886.66;5051949;28;20033;-65
2022/08/17 02:47:04;;;;;;;10.60;7.63;;;;;;;17.42;94.47;97890.06;5052658;28;20025;-65
2022/08/17 02:49:30;;;;;;;13.65;7.70;;;;;;;17.46;94.40;97891.66;5057132;28;20033;-65
2022/08/17 02:51:57;;;;;;;13.15;8.57;;;;;;;17.38;95.43;97886.75;5058616;28;20340;-65
2022/08/17 02:54:24;;;;;;;14.18;8.52;;;;;;;17.35;95.42;97886.06;5053492;28;20017;-65
2022/08/17 02:56:49;;;;;;;11.38;8.50;;;;;;;17.40;93.71;97892.00;5061948;28;20021;-65
2022/08/17 02:59:14;;;;;;;14.50;8.35;;;;;;;17.44;93.99;97896.22;5055596;28;20038;-65
2022/08/17 03:01:40;;;;;;;13.05;7.78;;;;;;;17.47;92.95;97888.03;5056570;28;20213;-65
2022/08/17 03:04:05;;;;;;;13.45;8.23;;;;;;;17.55;92.32;97893.75;5055990;28;20099;-65
2022/08/17 03:06:31;;;;;;;10.73;7.82;;;;;;;17.62;92.48;97889.81;5051126;28;20029;-65
2022/08/17 03:08:56;;;;;;;13.63;7.97;;;;;;;17.57;93.17;97891.88;5053664;28;20029;-65
2022/08/17 03:11:22;;;;;;;13.52;8.63;;;;;;;17.61;93.01;97883.63;5055460;28;20063;-65
2022/08/17 03:13:48;;;;;;;10.07;8.00;;;;;;;17.58;94.05;97883.81;5058426;28;20178;-65
2022/08/17 03:16:14;;;;;;;9.82;7.88;;;;;;;17.48;94.03;97877.31;5058414;28;20373;-65
2022/08/17 03:18:40;;;;;;;11.70;8.43;;;;;;;17.55;93.49;97869.81;5056054;28;20229;-65
2022/08/17 03:21:07;;;;;;;13.25;8.10;;;;;;;17.54;93.96;97866.31;5046797;28;20088;-65
2022/08/17 03:23:39;;;;;;;11.93;8.10;;;;;;;17.53;94.77;97866.41;5046704;28;20018;-65
2022/08/17 03:26:06;;;;;;;10.52;7.88;;;;;;;17.50;95.65;97855.94;5052232;28;20036;-65
2022/08/17 03:28:31;;;;;;;10.77;8.07;;;;;;;17.54;95.03;97860.13;5057264;28;20362;-65
2022/08/17 03:30:57;;;;;;;11.73;7.68;;;;;;;17.60;94.78;97854.44;5054948;28;20029;-65
2022/08/17 03:33:22;;;;;;;10.68;7.80;;;;;;;17.52;96.00;97851.41;5054748;28;20048;-65
2022/08/17 03:35:48;;;;;;;12.18;8.38;;;;;;;17.49;96.29;97856.91;5055666;28;20043;-65
2022/08/17 03:38:15;;;;;;;13.55;7.80;;;;;;;17.46;95.78;97855.25;5054732;28;20025;-65
2022/08/17 03:40:42;;;;;;;16.00;8.02;;;;;;;17.38;96.60;97848.66;5054585;28;20029;-65
2022/08/17 03:43:09;;;;;;;14.60;8.30;;;;;;;17.31;95.56;97847.28;5056698;28;21297;-65
2022/08/17 03:56:43;;;;;;;11.80;8.48;;;;;;;17.25;97.79;97865.31;5055439;28;20028;-65
2022/08/17 03:59:13;;;;;;;10.95;7.68;;;;;;;17.28;98.15;97861.63;5056020;28;20048;-65
2022/08/17 04:01:39;;;;;;;8.95;7.18;;;;;;;17.18;98.45;97863.97;5056636;28;20033;-65
2022/08/17 04:04:04;;;;;;;9.05;8.00;;;;;;;17.23;99.47;97856.59;5058171;28;20324;-65
2022/08/17 04:06:30;;;;;;;10.35;8.52;;;;;;;17.23;99.77;97856.59;5057089;28;20020;-65
2022/08/17 04:08:55;;;;;;;15.20;8.25;;;;;;;17.27;99.54;97851.09;5054799;28;20025;-65
2022/08/17 04:11:21;;;;;;;10.65;8.27;;;;;;;17.23;100.00;97848.59;5054140;28;20021;-65
2022/08/17 04:13:46;;;;;;;13.55;8.52;;;;;;;17.18;100.00;97861.31;5053201;28;20045;-65
2022/08/17 04:16:11;;;;;;;10.90;8.32;;;;;;;17.21;100.00;97863.78;5054892;28;20029;-65
2022/08/17 04:18:37;;;;;;;9.73;8.45;;;;;;;17.10;100.00;97871.53;5053157;28;20021;-65
2022/08/17 04:21:02;;;;;;;12.43;8.63;;;;;;;17.04;100.00;97866.56;5052879;28;20033;-65
2022/08/17 04:23:32;;;;;;;13.90;9.18;;;;;;;16.99;100.00;97857.13;5054061;28;20029;-66
2022/08/17 04:25:58;;;;;;;10.75;8.85;;;;;;;17.01;100.00;97861.44;5064465;28;20043;-66
2022/08/17 04:28:23;;;;;;;12.00;8.80;;;;;;;17.00;100.00;97867.66;5064400;28;20255;-67
2022/08/17 04:30:49;;;;;;;12.48;9.32;;;;;;;17.03;100.00;97870.16;5062276;28;20096;-66
2022/08/17 04:33:17;;;;;;;14.57;9.88;;;;;;;17.11;100.00;97862.59;5053814;28;20333;-66
2022/08/17 04:36:06;;;;;;;17.60;9.13;;;;;;;17.11;100.00;97862.59;5052804;28;20382;-66
2022/08/17 04:38:37;;;;;;;11.18;8.65;;;;;;;17.17;100.00;97862.25;5055841;28;20017;-66
2022/08/17 04:43:53;;;;;;;12.57;9.13;;;;;;;17.13;100.00;97844.78;5045226;28;20024;-66
2022/08/17 04:46:21;;;;;;;12.73;9.50;;;;;;;17.18;100.00;97847.13;5045257;28;20045;-66
2022/08/17 04:48:50;;;;;;;13.75;9.38;;;;;;;17.16;100.00;97839.28;5045185;28;20025;-66
2022/08/17 04:51:17;;;;;;;13.43;9.50;;;;;;;17.10;100.00;97813.03;5045165;28;20025;-66
2022/08/17 04:53:45;;;;;;;10.77;9.23;;;;;;;16.93;100.00;97821.13;5045155;28;20076;-66
2022/08/17 04:56:16;;;;;;;17.83;10.30;;;;;;;17.03;100.00;97824.94;5045023;28;20029;-66
2022/08/17 04:58:46;;;;;;;12.02;9.38;;;;;;;17.09;100.00;97832.56;5045032;28;20025;-66
2022/08/17 05:01:13;;;;;;;16.05;10.82;;;;;;;17.28;100.00;97854.50;5045270;28;20017;-66
2022/08/17 05:03:38;;;;;;;12.07;10.30;;;;;;;17.37;100.00;97865.56;5044825;28;20026;-66
2022/08/17 05:06:04;;;;;;;14.68;10.27;;;;;;;17.41;100.00;97859.97;5044963;28;20212;-66
2022/08/17 05:08:30;;;;;;;15.82;10.57;;;;;;;17.36;100.00;97858.50;5045040;28;20017;-66
2022/08/17 05:10:55;;;;;;;13.95;10.52;;;;;;;17.33;100.00;97856.88;5044458;28;20025;-66
2022/08/17 05:13:23;;;;;;;14.50;10.40;;;;;;;17.35;100.00;97848.81;5044765;28;20032;-66
2022/08/17 05:15:54;;;;;;;13.60;10.50;;;;;;;17.43;100.00;97851.94;5044951;28;20309;-66
2022/08/17 05:18:20;;;;;;;14.25;9.75;;;;;;;17.52;100.00;97852.22;5044679;28;20079;-66
2022/08/17 05:20:46;;;;;;;16.63;10.93;;;;;;;17.61;100.00;97850.81;5044629;28;20321;-66
2022/08/17 05:23:14;;;;;;;19.42;11.52;;;;;;;17.65;100.00;97852.38;5044527;28;20095;-66
2022/08/17 05:25:43;;;;;;;12.73;9.98;;;;;;;17.67;100.00;97855.78;5044777;28;20021;-66
2022/08/17 05:28:10;;;;;;;18.35;11.05;;;;;;;17.59;100.00;97852.75;5044419;28;20025;-66
2022/08/17 05:30:37;;;;;;;15.15;9.55;;;;;;;17.57;100.00;97854.63;5044334;28;20052;-66
2022/08/17 05:33:18;;;;;;;12.07;9.95;;;;;;;17.50;100.00;97848.81;5044479;28;20025;-66
2022/08/17 05:35:46;;;;;;;16.08;10.73;;;;;;;17.44;100.00;97845.66;5044338;28;20054;-66
2022/08/17 05:38:12;;;;;;;15.27;10.85;;;;;;;17.44;100.00;97840.34;5044352;28;20048;-66
2022/08/17 05:40:39;;;;;;;12.93;10.75;;;;;;;17.50;100.00;97843.50;5044278;28;20089;-66
2022/08/17 05:43:07;;;;;;;20.67;11.05;;;;;;;17.58;100.00;97843.03;5044175;28;20325;-66
2022/08/17 05:45:36;;;;;;;16.33;11.55;;;;;;;17.62;100.00;97849.91;5044264;28;20025;-66
2022/08/17 05:48:01;;;;;;;14.60;10.45;;;;;;;17.71;100.00;97849.31;5044188;28;20044;-66
2022/08/17 05:50:35;;;;;;;13.38;10.88;;;;;;;17.66;100.00;97844.31;5044420;28;20209;-66
2022/08/17 05:53:20;;;;;;;17.88;11.40;;;;;;;17.65;100.00;97842.56;5044124;28;20021;-66
2022/08/17 05:55:59;;;;;;;15.18;10.65;;;;;;;17.69;100.00;97832.59;5044137;28;20321;-66
2022/08/17 05:58:55;;;;;;;14.45;10.20;;;;;;;17.75;100.00;97832.25;5044124;28;20293;-66
2022/08/17 06:01:39;;;;;;;12.35;10.27;;;;;;;17.80;100.00;97836.34;5043978;28;20029;-66
2022/08/17 06:04:14;;;;;;;13.43;10.48;;;;;;;17.95;100.00;97854.03;5043959;28;20067;-66
2022/08/17 06:06:48;;;;;;;13.25;11.35;;;;;;;18.05;100.00;97862.31;5043989;28;20028;-66
2022/08/17 06:09:22;;;;;;;14.85;10.95;;;;;;;18.01;100.00;97855.47;5043933;28;20076;-66
2022/08/17 06:11:59;;;;;;;15.05;11.45;;;;;;;18.06;100.00;97858.69;5043878;28;20021;-66
2022/08/17 06:14:58;;;;;;;14.20;11.82;;;;;;;18.03;100.00;97880.22;5043908;28;20217;-66
2022/08/17 06:17:25;;;;;;;13.68;10.93;;;;;;;18.19;100.00;97888.97;5043831;28;20032;-66
2022/08/17 06:20:17;;;;;;;12.90;11.07;;;;;;;18.23;100.00;97896.66;5043802;28;20199;-66
2022/08/17 06:22:48;;;;;;;10.70;9.60;;;;;;;18.33;100.00;97905.81;5044716;28;20387;-66
2022/08/17 06:25:17;;;;;;;12.60;11.20;;;;;;;18.39;100.00;97896.63;5047934;28;20033;-66
2022/08/17 06:27:48;;;;;;;10.85;9.73;;;;;;;18.45;100.00;97886.41;5047835;28;20040;-66
2022/08/17 06:30:19;;;;;;;15.35;10.07;;;;;;;18.54;100.00;97874.34;5047759;28;20049;-66
2022/08/17 06:32:47;;;;;;;13.30;9.70;;;;;;;18.76;99.33;97872.00;5047796;28;20232;-66
2022/08/17 06:35:17;;;;;;;16.90;10.27;;;;;;;18.80;99.41;97862.88;5047774;28;20021;-66
2022/08/17 06:38:14;;;;;;;16.90;10.27;;;;;;;18.88;99.40;97852.56;5047703;28;20025;-66
2022/08/17 06:40:49;;;;;;;13.27;9.35;;;;;;;19.03;97.29;97848.91;5047313;28;20037;-66
2022/08/17 06:43:41;;;;;;;9.82;8.35;;;;;;;19.09;95.11;97844.03;5047520;28;20076;-66
2022/08/17 06:46:37;;;;;;;16.10;9.20;;;;;;;19.15;96.15;97848.94;5047764;28;20208;-66
2022/08/17 06:49:24;;;;;;;11.82;9.30;;;;;;;19.18;95.41;97854.06;5047034;28;20033;-66
2022/08/17 06:52:13;;;;;;;11.55;8.30;;;;;;;19.27;95.32;97856.19;5047444;28;20075;-66
2022/08/17 06:54:52;;;;;;;13.85;9.23;;;;;;;19.17;97.80;97852.38;5047424;28;20021;-66
2022/08/17 06:57:40;;;;;;;10.85;9.10;;;;;;;19.25;99.67;97854.53;5047332;28;20075;-66
2022/08/17 07:00:15;;;;;;;13.27;9.68;;;;;;;19.23;98.33;97851.97;5047094;28;20044;-66
2022/08/17 07:03:09;;;;;;;13.57;9.35;;;;;;;19.25;98.11;97857.22;5047236;28;20198;-66
2022/08/17 07:05:41;;;;;;;12.43;9.63;;;;;;;19.27;97.56;97853.50;5047187;28;20333;-66
2022/08/17 07:08:22;;;;;;;13.02;9.68;;;;;;;19.30;98.09;97856.94;5047120;28;20021;-66
2022/08/17 07:10:55;;;;;;;11.48;9.07;;;;;;;19.40;94.72;97855.38;5047044;28;20031;-66
2022/08/17 07:13:29;;;;;;;12.50;8.32;;;;;;;19.51;93.66;97861.69;5047297;28;20345;-66
2022/08/17 07:16:05;;;;;;;11.80;7.57;;;;;;;19.63;91.34;97855.53;5047052;28;20054;-66
2022/08/17 07:18:32;;;;;;;9.15;7.50;;;;;;;19.74;90.17;97858.31;5046933;28;20025;-66
2022/08/17 07:21:07;;;;;;;10.48;8.52;;;;;;;19.72;93.26;97862.94;5047130;28;20021;-66
2022/08/17 07:24:00;;;;;;;14.70;7.72;;;;;;;19.75;94.14;97862.72;5046784;28;20018;-66
2022/08/17 07:26:26;;;;;;;11.15;7.50;;;;;;;19.82;92.57;97861.34;5046890;28;20029;-66
2022/08/17 07:28:54;;;;;;;11.85;8.32;;;;;;;19.97;93.68;97870.09;5046744;28;20241;-66
2022/08/17 07:31:21;;;;;;;11.20;8.27;;;;;;;20.08;95.24;97867.53;5046653;28;20026;-66
2022/08/17 07:34:07;;;;;;;11.65;8.32;;;;;;;20.18;95.15;97865.97;5046297;28;20044;-66
2022/08/17 07:36:33;;;;;;;14.25;8.38;;;;;;;20.30;94.82;97868.66;5046851;28;20080;-66
2022/08/17 07:39:00;;;;;;;9.65;7.07;;;;;;;20.39;92.61;97894.75;5046567;28;20045;-66
2022/08/17 07:41:30;;;;;;;10.20;7.05;;;;;;;20.45;90.20;97896.97;5046498;28;20026;-66
2022/08/17 07:43:56;;;;;;;14.52;8.13;;;;;;;20.56;92.72;97893.53;5046467;28;20333;-66
2022/08/17 07:49:29;;;;;;;11.23;7.25;;;;;;;20.79;88.74;97906.97;5046403;28;20096;-66
2022/08/17 07:52:07;;;;;;;8.80;7.68;;;;;;;20.90;90.74;97896.38;5046373;28;20022;-66
2022/08/17 07:54:38;;;;;;;8.48;7.30;;;;;;;20.84;89.49;97896.81;5046299;28;20017;-66
2022/08/17 07:57:12;;;;;;;9.32;5.82;;;;;;;20.80;87.12;97892.66;5046237;28;20092;-66
2022/08/17 07:59:40;;;;;;;7.15;5.65;;;;;;;20.72;86.91;97902.16;5046103;28;20063;-66
2022/08/17 08:02:37;;;;;;;8.73;6.30;;;;;;;20.69;87.08;97908.59;5046183;28;20021;-66
2022/08/17 08:05:18;;;;;;;7.55;5.82;;;;;;;20.85;87.49;97919.06;5046125;28;20221;-66
2022/08/17 08:07:46;;;;;;;8.63;5.45;;;;;;;20.95;85.49;97914.81;5046081;28;20369;-66
2022/08/17 08:10:26;;;;;;;7.53;5.35;;;;;;;21.08;84.92;97921.81;5045965;28;20025;-66
2022/08/17 08:13:06;;;;;;;8.77;5.57;;;;;;;21.38;84.25;97931.28;5045978;28;20324;-66
2022/08/17 08:15:47;;;;;;;8.32;5.45;;;;;;;21.67;83.03;97935.31;5045977;28;20191;-66
2022/08/17 08:18:33;;;;;;;7.40;5.70;;;;;;;22.43;81.22;97941.94;5046136;28;20217;-66
2022/08/17 08:21:11;;;;;;;9.00;5.65;;;;;;;24.65;75.56;97939.50;5045784;28;20025;-66
2022/08/17 08:23:51;;;;;;;8.90;4.32;;;;;;;26.71;65.13;97949.28;5045682;28;20321;-66
2022/08/17 08:26:34;;;;;;;5.25;4.30;;;;;;;25.76;65.02;97933.09;5045974;28;20025;-66
2022/08/17 08:29:26;;;;;;;5.47;4.28;;;;;;;25.21;68.62;97929.97;5045486;28;20088;-66
2022/08/17 08:32:12;;;;;;;7.25;5.00;;;;;;;24.76;68.04;97941.25;5045526;28;20032;-66
2022/08/17 08:35:02;;;;;;;6.88;4.35;;;;;;;24.30;70.17;97949.72;5045565;28;20085;-66
2022/08/17 08:37:37;;;;;;;7.50;4.68;;;;;;;23.74;71.69;97950.94;5045489;28;20357;-66
2022/08/17 08:40:03;;;;;;;8.15;4.80;;;;;;;23.75;72.83;97955.31;5045420;28;20032;-66
2022/08/17 08:42:44;;;;;;;9.90;4.90;;;;;;;23.69;72.49;97953.13;5045617;28;20032;-66
2022/08/17 08:45:15;;;;;;;8.43;4.50;;;;;;;23.66;73.00;97953.38;5044545;28;20339;-66
2022/08/17 08:47:54;;;;;;;8.23;5.03;;;;;;;23.69;72.90;97963.03;5045542;28;20083;-66
2022/08/17 08:50:57;;;;;;;11.80;5.53;;;;;;;23.78;73.50;97973.88;5045498;28;20040;-66
2022/08/17 08:53:29;;;;;;;7.43;4.93;;;;;;;23.95;72.57;97970.66;5043446;28;20029;-66
2022/08/17 08:55:59;;;;;;;;;;;;;;;24.09;71.84;97966.81;5045517;28;20363;-66
2022/08/17 08:58:35;;;;;;;8.77;5.30;;;;;;;24.29;72.03;97980.28;5045314;28;19981;-66
2022/08/17 09:01:09;;;;;;;7.68;4.68;;;;;;;24.84;69.84;97977.28;5045062;28;20085;-66
2022/08/17 09:03:57;;;;;;;8.55;4.95;;;;;;;25.56;67.44;97980.72;5045179;28;20045;-66
2022/08/17 09:06:56;;;;;;;8.10;4.97;;;;;;;25.36;66.70;97975.41;5044853;28;20067;-66
2022/08/17 09:10:13;;;;;;;9.30;4.72;;;;;;;26.89;63.63;97974.56;5044876;28;20030;-66
2022/08/17 09:12:55;;;;;;;8.13;4.93;;;;;;;27.83;58.24;97963.44;5043781;28;20033;-66
2022/08/17 09:15:26;;;;;;;;;;;;;;;29.31;54.95;97962.50;5045157;28;20198;-66
2022/08/17 09:18:01;;;;;;;6.35;4.95;;;;;;;30.20;51.69;97964.53;5044651;28;19947;-66
2022/08/17 09:20:37;;;;;;;9.88;4.40;;;;;;;31.09;48.67;97958.06;5044942;28;20262;-66
2022/08/17 09:23:07;;;;;;;8.43;4.60;;;;;;;31.56;47.57;97956.25;5044583;28;20317;-66
2022/08/17 09:25:48;;;;;;;10.67;5.17;;;;;;;31.93;47.46;97952.84;5044612;28;20021;-66
2022/08/17 09:28:30;;;;;;;8.17;5.23;;;;;;;31.69;46.15;97937.47;5044724;28;20017;-66
2022/08/17 09:31:01;;;;;;;9.35;5.82;;;;;;;31.47;46.61;97927.38;5044551;28;20090;-66
2022/08/17 09:33:30;;;;;;;14.40;5.20;;;;;;;31.92;45.91;97932.09;5044586;28;20017;-66
2022/08/17 09:36:08;;;;;;;9.90;6.05;;;;;;;32.30;45.64;97932.00;5044409;28;20025;-66
2022/08/17 09:38:47;;;;;;;9.25;5.60;;;;;;;32.58;44.51;97941.31;5044444;28;20053;-66
2022/08/17 09:41:30;;;;;;;7.80;5.30;;;;;;;32.54;44.66;97948.19;5044348;28;20033;-66
2022/08/17 09:44:04;;;;;;;10.25;5.57;;;;;;;33.06;43.93;97951.78;5044135;28;20114;-66
2022/08/17 09:46:37;;;;;;;18.65;6.43;;;;;;;32.97;43.44;97963.81;5044279;28;20260;-66
2022/08/17 09:49:28;;;;;;;9.85;5.60;;;;;;;33.39;42.91;97967.81;5044242;28;20021;-66
2022/08/17 09:51:59;;;;;;;7.05;5.38;;;;;;;33.04;43.52;97964.78;5043289;28;20352;-66
2022/08/17 09:54:27;;;;;;;10.60;5.75;;;;;;;33.25;42.49;97961.31;5044132;28;20021;-66
2022/08/17 09:56:55;;;;;;;16.95;6.35;;;;;;;33.31;41.10;97965.19;5044009;28;20025;-66
2022/08/17 09:59:47;;;;;;;12.63;5.85;;;;;;;33.40;42.22;97975.00;5044053;28;20025;-66
2022/08/17 10:02:34;;;;;;;11.65;5.10;;;;;;;33.29;42.15;97978.16;5044030;28;20225;-66
2022/08/17 10:05:12;;;;;;;8.20;5.60;;;;;;;33.03;42.17;97973.97;5043914;28;20136;-66
2022/08/17 10:07:45;;;;;;;9.73;5.45;;;;;;;32.65;43.06;97974.97;5044221;28;20328;-66
2022/08/17 10:10:38;;;;;;;7.82;5.78;;;;;;;32.40;43.31;97980.81;5044221;28;20097;-66
2022/08/17 10:13:17;;;;;;;9.85;5.93;;;;;;;32.14;42.81;97986.56;5043990;28;20027;-66
2022/08/17 10:15:55;;;;;;;10.77;6.38;;;;;;;31.03;45.32;97983.22;5044171;28;20040;-66
2022/08/17 10:19:00;;;;;;;8.73;5.47;;;;;;;30.73;46.25;97992.09;5043845;28;20347;-66
2022/08/17 10:27:09;;;;;;;15.85;5.82;;;;;;;29.24;48.99;97995.69;5043734;28;20089;-66
2022/08/17 10:29:43;;;;;;;14.67;6.20;;;;;;;29.13;49.88;98004.09;5043498;28;20045;-66
2022/08/17 10:32:17;;;;;;;15.93;6.53;;;;;;;29.38;49.76;97985.28;5043738;28;20079;-66
2022/08/17 10:35:15;;;;;;;10.02;6.03;;;;;;;29.23;49.99;97999.41;5043753;28;20045;-66
2022/08/17 10:38:11;;;;;;;10.80;6.03;;;;;;;29.06;50.70;97985.91;5043221;28;20061;-66
2022/08/17 10:40:52;;;;;;;9.35;6.10;;;;;;;29.03;50.02;97983.50;5043923;28;20044;-66
2022/08/17 10:43:27;;;;;;;8.70;5.88;;;;;;;28.66;51.48;97983.75;5043864;28;20053;-66
2022/08/17 10:46:02;;;;;;;8.38;5.50;;;;;;;28.83;51.20;97984.72;5043615;28;20021;-66
2022/08/17 10:48:35;;;;;;;9.13;6.30;;;;;;;28.90;50.88;97989.34;5043581;28;20304;-66
2022/08/17 10:51:11;;;;;;;9.18;5.55;;;;;;;28.96;50.77;97986.00;5043625;28;20310;-66
2022/08/17 10:53:39;;;;;;;7.95;5.40;;;;;;;29.06;48.69;97992.19;5043769;28;20340;-66
2022/08/17 10:56:10;;;;;;;8.57;5.75;;;;;;;29.41;49.42;97990.34;5043480;28;20052;-66
2022/08/17 10:58:54;;;;;;;9.63;5.65;;;;;;;30.14;48.12;97993.19;5043551;28;20029;-66
2022/08/17 11:01:31;;;;;;;9.90;5.50;;;;;;;30.98;47.11;97985.63;5043476;28;20033;-66
2022/08/17 11:04:03;;;;;;;9.68;5.38;;;;;;;31.26;45.73;97991.50;5043406;28;20036;-66
2022/08/17 11:06:44;;;;;;;8.88;6.35;;;;;;;30.87;45.93;97988.69;5043464;28;20048;-66
2022/08/17 11:09:54;;;;;;;10.73;5.97;;;;;;;30.64;44.98;97995.81;5045834;28;20029;-66
2022/08/17 11:12:40;;;;;;;8.43;5.38;;;;;;;31.59;45.30;97996.69;5047067;28;20025;-66
2022/08/17 11:15:35;;;;;;;9.82;5.40;;;;;;;31.74;44.03;97989.50;5047079;28;20025;-66
2022/08/17 11:18:36;;;;;;;9.70;4.50;;;;;;;32.31;43.25;97990.91;5046992;28;20021;-66
2022/08/17 11:21:28;;;;;;;6.63;4.10;;;;;;;32.08;41.84;97992.72;5047199;28;20026;-66
2022/08/17 11:24:13;;;;;;;6.25;4.60;;;;;;;31.82;41.56;97980.50;5046794;28;20025;-66
2022/08/17 11:26:45;;;;;;;7.90;4.72;;;;;;;31.47;42.19;97981.78;5046734;28;20021;-66
2022/08/17 11:29:22;;;;;;;6.22;4.32;;;;;;;31.89;40.49;97984.19;5046790;28;20101;-66
2022/08/17 11:32:38;;;;;;;8.43;4.82;;;;;;;32.45;41.86;97983.84;5046997;28;20332;-66
2022/08/17 11:35:21;;;;;;;8.00;4.68;;;;;;;31.80;40.92;97975.19;5046387;28;20030;-66
2022/08/17 11:38:06;;;;;;;12.35;4.35;;;;;;;31.05;40.52;97962.16;5046851;28;20309;-66
2022/08/17 11:40:53;;;;;;;7.30;4.38;;;;;;;31.50;42.34;97965.09;5046603;28;20028;-66
2022/08/17 11:43:42;;;;;;;7.43;4.05;;;;;;;31.68;40.28;97957.56;5046385;28;20052;-66
2022/08/17 11:51:32;;;;;;;8.70;4.85;;;;;;;31.71;42.46;97957.19;5046437;28;20063;-66
2022/08/17 11:52:47;;;;;;;6.28;4.25;;;;;;;31.36;40.24;97946.81;5046347;28;20407;-66
2022/08/17 11:55:31;;;;;;;10.55;4.55;;;;;;;31.17;41.68;97947.19;5046307;28;20032;-66
2022/08/17 11:58:30;;;;;;;8.57;4.85;;;;;;;31.03;41.24;97950.59;5046298;28;20318;-66
2022/08/17 12:01:00;;;;;;;11.48;4.40;;;;;;;31.13;41.59;97946.66;5046145;28;20221;-66
2022/08/17 12:03:35;;;;;;;6.80;5.00;;;;;;;30.96;42.90;97944.16;5046093;28;20202;-66
2022/08/17 12:06:09;;;;;;;6.28;4.10;;;;;;;30.90;42.83;97953.00;5046177;28;20036;-66
2022/08/17 12:08:42;;;;;;;9.45;5.20;;;;;;;30.67;43.28;97943.84;5046121;28;20325;-66
2022/08/17 12:11:17;;;;;;;7.97;5.35;;;;;;;30.56;44.05;97952.34;5046014;28;20029;-66
2022/08/17 12:13:50;;;;;;;7.45;4.80;;;;;;;30.47;44.04;97950.66;5046033;28;20320;-66
2022/08/17 12:16:17;;;;;;;10.60;5.35;;;;;;;30.27;43.66;97955.56;5046208;28;20033;-66
2022/08/17 12:18:53;;;;;;;7.93;4.88;;;;;;;30.15;43.22;97942.47;5045810;28;20351;-66
2022/08/17 12:21:34;;;;;;;7.32;5.00;;;;;;;29.65;44.27;97933.53;5044907;28;20029;-66